createdAt,value
2018-03-19T00:04:41.996Z,8.22
2018-03-19T00:10:32.735Z,6.84
2018-03-19T00:16:23.512Z,6.25
2018-03-19T00:22:14.245Z,4.08
2018-03-19T00:28:05.034Z,2.87
2018-03-19T00:33:55.728Z,1.59
2018-03-19T00:39:46.520Z,0.79
2018-03-19T00:45:37.275Z,0.79
2018-03-19T00:51:28.004Z,0.95
2018-03-19T00:57:18.766Z,1.02
2018-03-19T01:03:09.581Z,0.94
2018-03-19T01:09:00.317Z,0.81
2018-03-19T01:14:51.002Z,0.5
2018-03-19T01:20:41.780Z,0.46
2018-03-19T01:26:32.533Z,0.43
2018-03-19T01:32:23.298Z,0.46
2018-03-19T01:38:14.031Z,0.4
2018-03-19T01:44:04.787Z,0.46
2018-03-19T01:49:55.552Z,0.54
2018-03-19T01:55:46.267Z,0.51
2018-03-19T02:01:37.050Z,0.6
2018-03-19T02:07:27.824Z,0.59
2018-03-19T02:13:18.509Z,0.6
2018-03-19T02:19:09.256Z,0.56
2018-03-19T02:25:00.010Z,0.57
2018-03-19T02:30:50.734Z,0.64
2018-03-19T02:36:41.511Z,0.8
2018-03-19T02:42:32.251Z,0.64
2018-03-19T02:48:23.040Z,0.62
2018-03-19T02:54:13.733Z,0.59
2018-03-19T03:00:04.492Z,0.75
2018-03-19T03:05:55.239Z,0.78
2018-03-19T03:11:45.978Z,0.71
2018-03-19T03:17:36.791Z,0.98
2018-03-19T03:23:27.471Z,0.85
2018-03-19T03:29:18.203Z,0.69
2018-03-19T03:35:08.973Z,0.68
2018-03-19T03:40:59.695Z,0.7
2018-03-19T03:46:50.472Z,0.49
2018-03-19T03:52:41.183Z,0.42
2018-03-19T03:58:31.929Z,0.5
2018-03-19T04:04:22.695Z,0.44
2018-03-19T04:10:13.424Z,0.45
2018-03-19T04:16:04.187Z,0.47
2018-03-19T04:21:54.897Z,0.81
2018-03-19T04:27:45.658Z,0.94
2018-03-19T04:33:36.408Z,0.94
2018-03-19T04:39:27.168Z,0.89
2018-03-19T04:45:17.907Z,1.08
2018-03-19T04:51:08.634Z,0.56
2018-03-19T04:56:59.362Z,0.5
2018-03-19T05:02:50.178Z,0.64
2018-03-19T05:08:40.876Z,0.6
2018-03-19T05:14:31.643Z,0.52
2018-03-19T05:20:22.375Z,0.63
2018-03-19T05:26:13.112Z,0.56
2018-03-19T05:32:03.844Z,0.56
2018-03-19T05:37:54.590Z,0.93
2018-03-19T05:43:45.366Z,1.11
2018-03-19T05:49:36.071Z,0.87
2018-03-19T05:55:26.787Z,1.1
2018-03-19T06:01:17.600Z,0.93
2018-03-19T06:07:08.348Z,1.09
2018-03-19T06:12:59.061Z,1.3
2018-03-19T06:18:49.837Z,1.57
2018-03-19T06:24:40.518Z,1.07
2018-03-19T06:30:31.342Z,1.05
2018-03-19T06:36:22.040Z,1.28
2018-03-19T06:42:12.781Z,1.24
2018-03-19T06:48:03.555Z,3.56
2018-03-19T06:53:54.248Z,1.49
2018-03-19T06:59:44.969Z,1.8
2018-03-19T07:05:35.747Z,1.68
2018-03-19T07:11:26.473Z,1.75
2018-03-19T07:17:17.298Z,2.24
2018-03-19T07:23:08.060Z,2.31
2018-03-19T07:28:58.730Z,2.58
2018-03-19T07:34:49.496Z,3.26
2018-03-19T07:40:40.231Z,3.13
2018-03-19T07:46:30.954Z,4.19
2018-03-19T07:52:21.796Z,2.38
2018-03-19T07:58:12.467Z,3.06
2018-03-19T08:04:03.234Z,2.73
2018-03-19T08:09:53.956Z,4.19
2018-03-19T08:15:44.694Z,7.51
2018-03-19T08:21:35.534Z,4.99
2018-03-19T08:27:26.240Z,4.16
2018-03-19T08:33:16.964Z,6.79
2018-03-19T08:39:07.734Z,4.92
2018-03-19T08:44:58.451Z,4.96
2018-03-19T08:50:49.210Z,6.62
2018-03-19T08:56:39.929Z,7.5
2018-03-19T09:02:30.687Z,5.68
2018-03-19T09:08:21.469Z,5.43
2018-03-19T09:14:12.237Z,3.45
2018-03-19T09:20:02.970Z,1.61
2018-03-19T09:25:53.709Z,2.06
2018-03-19T09:31:44.553Z,2.9
2018-03-19T09:37:35.267Z,1.45
2018-03-19T09:43:25.957Z,1.32
2018-03-19T09:49:16.723Z,0.74
2018-03-19T09:55:07.500Z,0.68
2018-03-19T10:00:58.246Z,0.7
2018-03-19T10:06:48.977Z,0.8
2018-03-19T10:12:39.750Z,0.86
2018-03-19T10:18:30.518Z,0.61
2018-03-19T10:24:21.278Z,0.6
2018-03-19T10:30:12.019Z,0.67
2018-03-19T10:36:02.756Z,0.68
2018-03-19T10:41:53.487Z,0.75
2018-03-19T10:47:44.312Z,0.85
2018-03-19T10:53:35.011Z,1.01
2018-03-19T10:59:25.729Z,0.94
2018-03-19T11:05:16.470Z,0.88
2018-03-19T11:11:07.280Z,0.77
2018-03-19T11:16:58.050Z,0.86
2018-03-19T11:22:48.750Z,0.72
2018-03-19T11:28:39.530Z,0.87
2018-03-19T11:34:30.364Z,0.94
2018-03-19T11:40:21.010Z,0.74
2018-03-19T11:46:11.811Z,0.6
2018-03-19T11:52:02.516Z,0.61
2018-03-19T11:57:53.300Z,0.65
2018-03-19T12:03:44.081Z,0.61
2018-03-19T12:09:34.866Z,0.61
2018-03-19T12:15:25.547Z,0.65
2018-03-19T12:21:16.352Z,0.66
2018-03-19T12:27:07.072Z,0.85
2018-03-19T12:32:57.808Z,0.7
2018-03-19T12:38:48.629Z,0.76
2018-03-19T12:44:39.329Z,3.93
2018-03-19T12:50:30.158Z,4.64
2018-03-19T12:56:20.879Z,4.31
2018-03-19T13:02:11.601Z,3.99
2018-03-19T13:08:02.373Z,4.34
2018-03-19T13:13:53.114Z,3.49
2018-03-19T13:19:43.930Z,2.79
2018-03-19T13:25:34.687Z,2.91
2018-03-19T13:31:25.442Z,2.95
2018-03-19T13:37:16.185Z,3.44
2018-03-19T13:43:06.960Z,3.26
2018-03-19T13:48:57.680Z,3.36
2018-03-19T13:54:48.443Z,3.41
2018-03-19T14:00:39.259Z,3.19
2018-03-19T14:06:30.043Z,3.48
2018-03-19T14:12:20.756Z,3.95
2018-03-19T14:18:11.540Z,2.97
2018-03-19T14:24:02.275Z,2.97
2018-03-19T14:29:53.052Z,5.02
2018-03-19T14:35:43.833Z,3.72
2018-03-19T14:41:34.665Z,4.76
2018-03-19T14:47:25.342Z,5.28
2018-03-19T14:53:16.069Z,4.53
2018-03-19T14:59:06.889Z,5.03
2018-03-19T15:04:57.714Z,3.75
2018-03-19T15:10:48.393Z,3.7
2018-03-19T15:16:39.157Z,3.65
2018-03-19T15:22:29.896Z,4.36
2018-03-19T15:28:20.782Z,6.61
2018-03-19T15:34:11.511Z,5.59
2018-03-19T15:40:02.200Z,4.39
2018-03-19T15:45:53.041Z,4.1
2018-03-19T15:51:43.764Z,4.57
2018-03-19T15:57:34.494Z,3.95
2018-03-19T16:03:25.243Z,5.18
2018-03-19T16:09:16.018Z,6.62
2018-03-19T16:15:06.812Z,8.1
2018-03-19T16:20:57.629Z,5.07
2018-03-19T16:26:48.319Z,5.97
2018-03-19T16:32:39.083Z,7.99
2018-03-19T16:38:29.846Z,10.82
2018-03-19T16:44:20.614Z,5.63
2018-03-19T16:50:11.387Z,5.57
2018-03-19T16:56:02.112Z,6.14
2018-03-19T17:01:52.885Z,7.36
2018-03-19T17:07:43.673Z,8.16
2018-03-19T17:13:34.416Z,8.76
2018-03-19T17:19:25.186Z,9.02
2018-03-19T17:25:15.937Z,8.95
2018-03-19T17:31:06.699Z,9.46
2018-03-19T17:36:57.421Z,8.45
2018-03-19T17:42:48.200Z,8.78
2018-03-19T17:48:38.966Z,8.54
2018-03-19T17:54:29.732Z,9.86
2018-03-19T18:00:20.474Z,9.35
2018-03-19T18:06:11.202Z,14.5
2018-03-19T18:12:01.986Z,9.48
2018-03-19T18:17:52.775Z,11.94
2018-03-19T18:23:43.548Z,15.73
2018-03-19T18:29:34.248Z,16.26
2018-03-19T18:35:25.013Z,11.9
2018-03-19T18:41:15.795Z,14.27
2018-03-19T18:47:06.498Z,9.12
2018-03-19T18:52:57.322Z,7.66
2018-03-19T18:58:48.040Z,7.46
2018-03-19T19:04:38.806Z,8.71
2018-03-19T19:10:29.541Z,9.13
2018-03-19T19:16:20.306Z,13.68
2018-03-19T19:22:11.033Z,9.61
2018-03-19T19:28:01.842Z,9.2
2018-03-19T19:33:52.642Z,12.43
2018-03-19T19:39:43.305Z,16.32
2018-03-19T19:45:34.053Z,12.33
2018-03-19T19:51:24.839Z,16.05
2018-03-19T19:57:15.525Z,18.36
2018-03-19T20:03:06.322Z,19.66
2018-03-19T20:08:57.135Z,16.82
2018-03-19T20:14:47.841Z,18.18
2018-03-19T20:20:38.554Z,16.01
2018-03-19T20:26:29.312Z,15.03
2018-03-19T20:32:20.045Z,15.8
2018-03-19T20:38:10.825Z,15.39
2018-03-19T20:44:01.571Z,15.51
2018-03-19T20:49:52.337Z,14.93
2018-03-19T20:55:43.063Z,16.35
2018-03-19T21:01:33.833Z,15.85
2018-03-19T21:07:24.584Z,15.2
2018-03-19T21:13:15.293Z,14.64
2018-03-19T21:19:06.045Z,16.66
2018-03-19T21:24:56.800Z,14.12
2018-03-19T21:30:47.566Z,16.92
2018-03-19T21:36:38.279Z,16.76
2018-03-19T21:42:29.046Z,15.28
2018-03-19T21:48:19.807Z,13.2
2018-03-19T21:54:10.545Z,14
2018-03-19T22:00:01.277Z,12.66
2018-03-19T22:05:52.050Z,11.52
2018-03-19T22:11:42.792Z,9.99
2018-03-19T22:17:33.549Z,12.17
2018-03-19T22:23:24.289Z,9.59
2018-03-19T22:29:15.043Z,11.99
2018-03-19T22:35:05.794Z,9.26
2018-03-19T22:40:56.547Z,9.72
2018-03-19T22:46:47.277Z,21.67
2018-03-19T22:52:37.997Z,17.99
2018-03-19T22:58:28.773Z,17.62
2018-03-19T23:04:19.527Z,16.89
2018-03-19T23:10:10.268Z,20.34
2018-03-19T23:16:00.975Z,22.36
2018-03-19T23:21:51.756Z,24.15
2018-03-19T23:27:42.512Z,21.6
2018-03-19T23:33:33.281Z,21.07
2018-03-19T23:39:24.004Z,17.57
2018-03-19T23:45:14.765Z,19.21
2018-03-19T23:51:05.533Z,19.83
2018-03-19T23:56:56.251Z,19.61
